This is the latest recevied weather packets stored in our database for station/object NY5V. If no packets are shown the sender has not sent any weather packets the latest 1 day(s).
| Time | Temp. | Humidity | Pressure | Rain* | Wind** | Luminosity | Snow |
|---|---|---|---|---|---|---|---|
| 1778091890 | 15° C | 91% | 1011.6 hPa | 0 mm | - | 91 W/m² | - |
| 1778091285 | 15.56° C | 90% | 1011.7 hPa | 0 mm | - | 62 W/m² | - |
| 1778090684 | 15.56° C | 89% | 1013 hPa | 0 mm | - | 99 W/m² | - |
| 1778089478 | 15.56° C | 89% | 1013.4 hPa | 0 mm | - | 96 W/m² | - |
| 1778088878 | 15.56° C | 89% | 1012.6 hPa | 0 mm | - | 263 W/m² | - |
| 1778087077 | 13.89° C | 92% | 1014.1 hPa | 0 mm | - | 88 W/m² | - |
| 1778085271 | 13.89° C | 93% | 1015.3 hPa | 0 mm | - | 36 W/m² | - |
| 1778084670 | 13.89° C | 92% | 1014.9 hPa | 0 mm | - | 41 W/m² | - |
| 1778081742 | 14.44° C | 91% | 1013.3 hPa | 0 mm | - | 50 W/m² | - |
| 1778080538 | 15° C | 91% | 1012.6 hPa | 0 mm | - | 71 W/m² | - |
| 1778079937 | 15° C | 90% | 1013.1 hPa | 0 mm | - | 54 W/m² | - |
| 1778078736 | 15° C | 90% | 1012.9 hPa | 0 mm | - | 59 W/m² | - |
| 1778078131 | 15° C | 91% | 1012.4 hPa | 0 mm | - | 74 W/m² | - |
| 1778076922 | 15° C | 91% | 1012.2 hPa | 0 mm | - | 55 W/m² | - |
| 1778075717 | 14.44° C | 92% | 1012 hPa | 0 mm | - | 38 W/m² | - |
| 1778074515 | 15° C | 93% | 1011.8 hPa | 0 mm | - | 51 W/m² | - |
| 1778073315 | 15.56° C | 93% | 1012 hPa | 0 mm | - | 17 W/m² | - |
| 1778067886 | 17.78° C | 91% | 1010.3 hPa | 0 mm | - | 1 W/m² | - |
| 1778067282 | 18.33° C | 88% | 1010 hPa | 0 mm | - | 0 W/m² | - |
| 1778064870 | 20° C | 86% | 1009.5 hPa | 0 mm | - | 0 W/m² | - |
| 1778064265 | 20° C | 86% | 1009.4 hPa | 0 mm | - | 0 W/m² | - |
| 1778062454 | 21.67° C | 84% | 1009.1 hPa | 0 mm | - | 0 W/m² | - |
| 1778061850 | 23.89° C | 92% | 1008.8 hPa | 0 mm | - | 0 W/m² | - |
| 1778061246 | 23.89° C | 93% | 1008.7 hPa | 0 mm | - | 0 W/m² | - |
| 1778059431 | 23.89° C | 93% | 1008.8 hPa | 0 mm | - | 0 W/m² | - |
* Rain latest hour (hover to see other rain measurements)
** Current wind speed in m/s (hover to see current wind gust speed)